Temperatur und Luftfeuchte

Temperatur und Luftfeuchte

Die letzten 100 Messwerte

Nummer Datum und Zeit Sensor ID Temperatur in Celsius gef├╝hlte Temperatur Luftfeuchte in %
33860 2020-10-25 09:27:04 Terrasse 13.00 12.96 99.90
33859 2020-10-25 08:58:42 Terrasse 11.80 11.64 99.90
33858 2020-10-25 08:30:22 Terrasse 11.30 11.09 99.90
33857 2020-10-25 08:02:04 Terrasse 10.90 10.65 99.90
33856 2020-10-25 07:33:47 Terrasse 10.80 10.54 99.90
33855 2020-10-25 07:05:32 Terrasse 10.80 10.54 99.90
33854 2020-10-25 06:37:17 Terrasse 10.90 10.65 99.90
33853 2020-10-25 06:09:01 Terrasse 11.00 10.76 99.90
33852 2020-10-25 05:40:46 Terrasse 11.10 10.87 99.90
33851 2020-10-25 05:12:32 Terrasse 11.20 10.98 99.90
33850 2020-10-25 04:44:16 Terrasse 11.40 11.20 99.90
33849 2020-10-25 04:16:01 Terrasse 11.60 11.42 99.90
33848 2020-10-25 03:47:46 Terrasse 11.80 11.64 99.90
33847 2020-10-25 03:19:32 Terrasse 12.10 11.97 99.90
33846 2020-10-25 02:51:16 Terrasse 12.10 11.97 99.90
33845 2020-10-25 02:23:01 Terrasse 12.30 12.19 99.90
33844 2020-10-25 02:54:45 Terrasse 12.50 12.41 99.90
33843 2020-10-25 02:26:30 Terrasse 12.60 12.52 99.90
33842 2020-10-25 01:58:14 Terrasse 12.70 12.63 99.90
33841 2020-10-25 01:29:59 Terrasse 12.90 12.85 99.90
33840 2020-10-25 01:01:45 Terrasse 12.80 12.74 99.90
33839 2020-10-25 00:33:30 Terrasse 13.20 13.18 99.90
33838 2020-10-25 00:05:15 Terrasse 13.40 13.40 99.90
33837 2020-10-24 23:37:00 Terrasse 13.60 13.62 99.90
33836 2020-10-24 23:08:48 Terrasse 13.70 13.73 99.90
33835 2020-10-24 22:40:31 Terrasse 13.70 13.73 99.90
33834 2020-10-24 22:12:15 Terrasse 13.80 13.84 99.90
33833 2020-10-24 21:43:59 Terrasse 13.80 13.84 99.90
33832 2020-10-24 21:15:43 Terrasse 13.80 13.84 99.90
33831 2020-10-24 20:47:27 Terrasse 13.90 13.95 99.90
33830 2020-10-24 20:19:13 Terrasse 14.00 14.06 99.90
33829 2020-10-24 19:50:57 Terrasse 14.10 14.17 99.90
33828 2020-10-24 19:22:42 Terrasse 14.10 14.17 99.90
33827 2020-10-24 18:54:27 Terrasse 14.20 14.28 99.90
33826 2020-10-24 18:26:11 Terrasse 14.30 14.39 99.90
33825 2020-10-24 17:57:55 Terrasse 14.50 14.61 99.90
33824 2020-10-24 17:29:39 Terrasse 14.70 14.83 99.90
33823 2020-10-24 17:01:24 Terrasse 14.90 15.05 99.90
33822 2020-10-24 16:33:09 Terrasse 15.20 15.38 99.90
33821 2020-10-24 16:04:56 Terrasse 15.60 15.82 99.90
33820 2020-10-24 15:36:46 Terrasse 16.50 16.39 83.70
33819 2020-10-24 15:08:43 Terrasse 18.60 18.29 67.80
33818 2020-10-24 14:40:35 Terrasse 21.60 21.48 63.70
33817 2020-10-24 14:12:28 Terrasse 22.70 22.62 61.20
33816 2020-10-24 13:43:07 Terrasse 16.30 16.59 99.90
33815 2020-10-24 13:14:44 Terrasse 14.10 14.17 99.90
33814 2020-10-24 12:46:24 Terrasse 13.70 13.73 99.90
33813 2020-10-24 12:18:05 Terrasse 13.40 13.40 99.90
33812 2020-10-24 11:49:48 Terrasse 13.30 13.29 99.90
33811 2020-10-24 11:21:28 Terrasse 13.00 12.96 99.90
33810 2020-10-24 10:53:12 Terrasse 13.20 13.18 99.90
33809 2020-10-24 10:24:55 Terrasse 12.80 12.74 99.90
33808 2020-10-24 09:56:38 Terrasse 12.70 12.63 99.90
33807 2020-10-24 09:28:19 Terrasse 12.50 12.41 99.90
33806 2020-10-24 09:00:01 Terrasse 12.30 12.19 99.90
33805 2020-10-24 08:31:59 Terrasse 12.20 12.08 99.90
33804 2020-10-24 08:03:36 Terrasse 12.20 12.08 99.90
33803 2020-10-24 07:35:19 Terrasse 12.40 12.30 99.90
33802 2020-10-24 07:07:02 Terrasse 12.40 12.30 99.90
33801 2020-10-24 06:38:46 Terrasse 12.40 12.30 99.90
33800 2020-10-24 06:10:31 Terrasse 12.40 12.30 99.90
33799 2020-10-24 05:42:12 Terrasse 12.40 12.30 99.90
33798 2020-10-24 05:13:54 Terrasse 12.40 12.30 99.90
33797 2020-10-24 04:45:35 Terrasse 12.20 12.08 99.90
33796 2020-10-24 04:17:19 Terrasse 12.40 12.30 99.90
33795 2020-10-24 03:49:02 Terrasse 12.30 12.19 99.90
33794 2020-10-24 03:20:46 Terrasse 12.20 12.08 99.90
33793 2020-10-24 02:52:31 Terrasse 12.40 12.30 99.90
33792 2020-10-24 02:24:15 Terrasse 12.70 12.63 99.90
33791 2020-10-24 01:55:58 Terrasse 12.90 12.85 99.90
33790 2020-10-24 01:27:43 Terrasse 13.20 13.18 99.90
33789 2020-10-24 00:59:29 Terrasse 13.60 13.62 99.90
33788 2020-10-24 00:31:14 Terrasse 13.80 13.84 99.90
33787 2020-10-24 00:02:59 Terrasse 14.20 14.28 99.90
33786 2020-10-23 23:34:43 Terrasse 14.30 14.39 99.90
33785 2020-10-23 23:06:27 Terrasse 14.30 14.39 99.90
33784 2020-10-23 22:38:11 Terrasse 14.40 14.50 99.90
33783 2020-10-23 22:09:53 Terrasse 14.40 14.50 99.90
33782 2020-10-23 21:41:37 Terrasse 14.50 14.61 99.90
33781 2020-10-23 21:13:21 Terrasse 14.50 14.61 99.90
33780 2020-10-23 20:45:05 Terrasse 14.50 14.61 99.90
33779 2020-10-23 20:16:49 Terrasse 14.60 14.72 99.90
33778 2020-10-23 19:48:31 Terrasse 14.60 14.72 99.90
33777 2020-10-23 19:20:58 Terrasse 14.10 14.17 99.90
33776 2020-10-23 18:52:21 Terrasse 14.20 14.28 99.90
33775 2020-10-23 18:23:20 Terrasse 14.30 14.39 99.90
33774 2020-10-23 17:55:04 Terrasse 14.40 14.50 99.90
33773 2020-10-23 16:59:09 Terrasse 14.60 14.72 99.90
33772 2020-10-23 16:02:00 Terrasse 14.50 14.61 99.90
33771 2020-10-23 15:05:43 Terrasse 14.30 14.39 99.90
33770 2020-10-23 14:37:51 Terrasse 14.20 14.28 99.90
33769 2020-10-23 14:09:32 Terrasse 14.20 14.28 99.90
33768 2020-10-23 13:41:05 Terrasse 14.10 14.17 99.90
33767 2020-10-23 13:13:00 Terrasse 14.00 14.06 99.90
33766 2020-10-23 12:44:57 Terrasse 14.00 14.06 99.90
33765 2020-10-23 11:48:46 Terrasse 13.90 13.95 99.90
33764 2020-10-23 11:20:20 Terrasse 13.90 13.95 99.90
33763 2020-10-23 10:52:01 Terrasse 13.90 13.95 99.90
33762 2020-10-23 09:55:44 Terrasse 13.90 13.95 99.90
33761 2020-10-23 09:27:36 Terrasse 13.90 13.95 99.90